x

Destruction Island, Wa (desw1) Weather Station

2:00 - Mon 26th Sep 2016 All times are PDT. -7 hours from GMT.

  • Wind
    10mph
  • Luft Temp 61°f
  • Sea Pressure 1021.6mb
  • Destruction Island, Wa
  • Destruction Island, Wa

More Historic Weather Station data

Upgrade to MSW Pro to gain access to the past 30 days of data for over 8000 Wavebouys and Weather Stations around the globe.

Join Pro

Comparision Forecast

View Surf forecast
   
Mo 09/26 2:00 10
mph
1021.6mb 61f
1:00 7
mph
1022.2mb 60f
12:00 6 7 mph 1022.9mb 60f
So 09/25 11:00 5 6 mph 1023.3mb 59f
10:00 6 7 mph 1023.8mb 59f
9:00 13
mph
1024.3mb 59f
8:00 13 14 mph 1024.5mb 59f
7:00 9
mph
1024.9mb 59f
6:00 9 10 mph 1025.7mb 60f
5:00 7
mph
1026.2mb 61f
4:00 9
mph
1027.3mb 61f
3:00 5
mph
1027.7mb 63f
2:00 3 5 mph 1028.3mb 64f
1:00 5 6 mph 1028.7mb 63f
12:00 7 8 mph 1028.9mb 62f
11:00 9
mph
1029.1mb 60f
10:00 10 14 mph 1029mb 58f
9:00 14 15 mph 1028.7mb 59f
8:00 16 20 mph 1028.4mb 59f
7:00 15 16 mph 1028.1mb 58f
6:00 14 16 mph 1028mb 58f
5:00 6
mph
1028mb 58f
4:00 6 7 mph 1027.9mb 58f
3:00 9 10 mph 1027.9mb 58f
2:00 7
mph
1028.1mb 58f
1:00 6 7 mph 1028.5mb 58f
12:00 6 7 mph 1028.5mb 58f
Sa 09/24 11:00 3
mph
1028.5mb 58f
10:00 3
mph
1028mb 57f
9:00 3 5 mph 1027.7mb 58f
8:00 2
mph
1027.5mb 57f
7:00 3
mph
1027.1mb 57f
6:00 3 5 mph 1027mb 57f
5:00  -  1 mph 1027.3mb 58f
4:00  -  mph 1027.5mb 58f
3:00 6
mph
1027.8mb 58f
2:00 7 8 mph 1027.8mb 59f
1:00 6 7 mph 1028.7mb 59f
12:00 5
mph
1028.8mb 58f
11:00 3 5 mph 1029mb 58f
10:00  -  1 mph 1028.6mb 56f
9:00 1 2 mph 1028mb 54f
8:00 6 7 mph 1027.5mb 52f
7:00 3 5 mph 1027mb 52f
6:00 7 8 mph 1026.4mb 52f
5:00 7 8 mph 1026mb 51f
4:00 10 11 mph 1025.3mb 52f
3:00 9
mph
1025.2mb 52f
2:00 2 3 mph 1025.4mb 55f
1:00 1 2 mph 1025mb 55f
12:00 5 6 mph 1023.8mb 56f
Fr 09/23 11:00 5 6 mph 1023.5mb 56f
10:00 8 9 mph 1023mb 56f
9:00 10 11 mph 1022.3mb 56f
8:00 15 16 mph 1021.1mb 56f
7:00 15 16 mph 1019.8mb 56f
6:00 23 25 mph 1018.5mb 56f
5:00 13 14 mph 1017.7mb 56f
4:00 14 16 mph 1017.1mb 58f
3:00 20 21 mph 1016.3mb 58f
2:00 13 16 mph 1015.7mb 58f
1:00 15 16 mph 1015.2mb 56f
12:00 22 26 mph 1014.3mb 55f
11:00 31 36 mph 1013mb 55f
10:00 39 44 mph 1011.6mb 55f
9:00 41 48 mph 1011.2mb 55f
8:00 41 46 mph 1011.4mb 54f
7:00 34 39 mph 1012.3mb 55f
6:00 34 39 mph 1013.3mb 55f
5:00 33 36 mph 1013.8mb 55f
4:00 29 31 mph 1014.9mb 55f
3:00 28 30 mph 1016mb 56f
2:00 25 28 mph 1016.3mb 56f
1:00 24 25 mph 1016.7mb 56f
12:00 23 24 mph 1016.5mb 55f
Do 09/22 11:00 18 20 mph 1017.3mb 55f
10:00 17 20 mph 1017.6mb 55f
9:00 14 15 mph 1018.4mb 55f
8:00 15 16 mph 1018.4mb 56f
7:00 11 14 mph 1018.6mb 56f
6:00 7 8 mph 1019.1mb 57f
5:00 7 8 mph 1018.8mb 56f
4:00 5
mph
1018.9mb 57f
3:00 6 7 mph 1019.1mb 57f
2:00  -  1 mph 1018.7mb 58f
1:00 2 3 mph 1018.5mb 55f
12:00 8 9 mph 1018.7mb 55f
11:00 2 5 mph 1018mb 54f